sensor_id;sensor_type;location;lat;lon;timestamp;temperature;humidity
6841;DHT22;3458;53.678;14.080;2024-02-16T00:00:23;11.30;99.90
6841;DHT22;3458;53.678;14.080;2024-02-16T00:02:49;11.30;99.90
6841;DHT22;3458;53.678;14.080;2024-02-16T00:05:14;11.30;99.90
6841;DHT22;3458;53.678;14.080;2024-02-16T00:07:40;11.30;99.90
6841;DHT22;3458;53.678;14.080;2024-02-16T00:10:07;11.30;99.90
6841;DHT22;3458;53.678;14.080;2024-02-16T00:12:33;11.30;99.90
6841;DHT22;3458;53.678;14.080;2024-02-16T00:14:59;11.30;99.90
6841;DHT22;3458;53.678;14.080;2024-02-16T00:17:25;11.30;99.90
6841;DHT22;3458;53.678;14.080;2024-02-16T00:19:53;11.20;99.90
6841;DHT22;3458;53.678;14.080;2024-02-16T00:22:18;11.20;99.90
6841;DHT22;3458;53.678;14.080;2024-02-16T00:24:44;11.20;99.90
6841;DHT22;3458;53.678;14.080;2024-02-16T00:27:10;11.20;99.90
6841;DHT22;3458;53.678;14.080;2024-02-16T00:29:35;11.20;99.90
6841;DHT22;3458;53.678;14.080;2024-02-16T00:32:01;11.20;99.90
6841;DHT22;3458;53.678;14.080;2024-02-16T00:34:26;11.20;99.90
6841;DHT22;3458;53.678;14.080;2024-02-16T00:36:52;11.20;99.90
6841;DHT22;3458;53.678;14.080;2024-02-16T00:39:17;11.20;99.90
6841;DHT22;3458;53.678;14.080;2024-02-16T00:41:43;11.20;99.90
6841;DHT22;3458;53.678;14.080;2024-02-16T00:44:08;11.20;99.90
6841;DHT22;3458;53.678;14.080;2024-02-16T00:46:35;11.20;99.90
6841;DHT22;3458;53.678;14.080;2024-02-16T00:49:01;11.20;99.90
6841;DHT22;3458;53.678;14.080;2024-02-16T00:51:27;11.20;99.90
6841;DHT22;3458;53.678;14.080;2024-02-16T00:53:52;11.20;99.90
6841;DHT22;3458;53.678;14.080;2024-02-16T00:56:18;11.20;99.90
6841;DHT22;3458;53.678;14.080;2024-02-16T00:58:43;11.20;99.90
6841;DHT22;3458;53.678;14.080;2024-02-16T01:01:09;11.20;99.90
6841;DHT22;3458;53.678;14.080;2024-02-16T01:03:40;11.20;99.90
6841;DHT22;3458;53.678;14.080;2024-02-16T01:06:06;11.20;99.90
6841;DHT22;3458;53.678;14.080;2024-02-16T01:08:32;11.20;99.90
6841;DHT22;3458;53.678;14.080;2024-02-16T01:10:58;11.20;99.90
6841;DHT22;3458;53.678;14.080;2024-02-16T01:13:24;11.20;99.90
6841;DHT22;3458;53.678;14.080;2024-02-16T01:15:49;11.20;99.90
6841;DHT22;3458;53.678;14.080;2024-02-16T01:18:15;11.20;99.90
6841;DHT22;3458;53.678;14.080;2024-02-16T01:20:41;11.20;99.90
6841;DHT22;3458;53.678;14.080;2024-02-16T01:23:06;11.20;99.90
6841;DHT22;3458;53.678;14.080;2024-02-16T01:25:32;11.20;99.90
6841;DHT22;3458;53.678;14.080;2024-02-16T01:27:58;11.20;99.90
6841;DHT22;3458;53.678;14.080;2024-02-16T01:30:24;11.30;99.90
6841;DHT22;3458;53.678;14.080;2024-02-16T01:32:49;11.30;99.90
6841;DHT22;3458;53.678;14.080;2024-02-16T01:35:15;11.30;99.90
6841;DHT22;3458;53.678;14.080;2024-02-16T01:37:41;11.30;99.90
6841;DHT22;3458;53.678;14.080;2024-02-16T01:40:08;11.30;99.90
6841;DHT22;3458;53.678;14.080;2024-02-16T01:42:39;11.30;99.90
6841;DHT22;3458;53.678;14.080;2024-02-16T01:45:05;11.20;99.90
6841;DHT22;3458;53.678;14.080;2024-02-16T01:47:31;11.30;99.90
6841;DHT22;3458;53.678;14.080;2024-02-16T01:49:56;11.30;99.90
6841;DHT22;3458;53.678;14.080;2024-02-16T01:52:22;11.30;99.90
6841;DHT22;3458;53.678;14.080;2024-02-16T01:54:47;11.20;99.90
6841;DHT22;3458;53.678;14.080;2024-02-16T01:57:13;11.30;99.90
6841;DHT22;3458;53.678;14.080;2024-02-16T01:59:40;11.30;99.90
6841;DHT22;3458;53.678;14.080;2024-02-16T02:02:05;11.30;99.90
6841;DHT22;3458;53.678;14.080;2024-02-16T02:04:32;11.30;99.90
6841;DHT22;3458;53.678;14.080;2024-02-16T02:06:57;11.30;99.90
6841;DHT22;3458;53.678;14.080;2024-02-16T02:09:23;11.30;99.90
6841;DHT22;3458;53.678;14.080;2024-02-16T02:11:48;11.30;99.90
6841;DHT22;3458;53.678;14.080;2024-02-16T02:14:14;11.30;99.90
6841;DHT22;3458;53.678;14.080;2024-02-16T02:16:39;11.30;99.90
6841;DHT22;3458;53.678;14.080;2024-02-16T02:19:05;11.30;99.90
6841;DHT22;3458;53.678;14.080;2024-02-16T02:21:30;11.30;99.90
6841;DHT22;3458;53.678;14.080;2024-02-16T02:23:56;11.30;99.90
6841;DHT22;3458;53.678;14.080;2024-02-16T02:26:22;11.30;99.90
6841;DHT22;3458;53.678;14.080;2024-02-16T02:28:47;11.30;99.90
6841;DHT22;3458;53.678;14.080;2024-02-16T02:31:13;11.30;99.90
6841;DHT22;3458;53.678;14.080;2024-02-16T02:33:39;11.30;99.90
6841;DHT22;3458;53.678;14.080;2024-02-16T02:36:05;11.30;99.90
6841;DHT22;3458;53.678;14.080;2024-02-16T02:38:30;11.30;99.90
6841;DHT22;3458;53.678;14.080;2024-02-16T02:40:56;11.30;99.90
6841;DHT22;3458;53.678;14.080;2024-02-16T02:43:22;11.30;99.90
6841;DHT22;3458;53.678;14.080;2024-02-16T02:45:48;11.30;99.90
6841;DHT22;3458;53.678;14.080;2024-02-16T02:48:14;11.20;99.90
6841;DHT22;3458;53.678;14.080;2024-02-16T02:50:39;11.30;99.90
6841;DHT22;3458;53.678;14.080;2024-02-16T02:53:04;11.30;99.90
6841;DHT22;3458;53.678;14.080;2024-02-16T02:55:30;11.30;99.90
6841;DHT22;3458;53.678;14.080;2024-02-16T02:57:55;11.20;99.90
6841;DHT22;3458;53.678;14.080;2024-02-16T03:00:23;11.20;99.90
6841;DHT22;3458;53.678;14.080;2024-02-16T03:02:48;11.20;99.90
6841;DHT22;3458;53.678;14.080;2024-02-16T03:05:14;11.20;99.90
6841;DHT22;3458;53.678;14.080;2024-02-16T03:07:39;11.20;99.90
6841;DHT22;3458;53.678;14.080;2024-02-16T03:10:06;11.20;99.90
6841;DHT22;3458;53.678;14.080;2024-02-16T03:12:34;11.10;99.90
6841;DHT22;3458;53.678;14.080;2024-02-16T03:15:00;11.10;99.90
6841;DHT22;3458;53.678;14.080;2024-02-16T03:17:25;11.00;99.90
6841;DHT22;3458;53.678;14.080;2024-02-16T03:19:51;11.00;99.90
6841;DHT22;3458;53.678;14.080;2024-02-16T03:22:17;11.00;99.90
6841;DHT22;3458;53.678;14.080;2024-02-16T03:24:42;11.00;99.90
6841;DHT22;3458;53.678;14.080;2024-02-16T03:27:10;10.90;99.90
6841;DHT22;3458;53.678;14.080;2024-02-16T03:29:36;10.90;99.90
6841;DHT22;3458;53.678;14.080;2024-02-16T03:32:01;10.90;99.90
6841;DHT22;3458;53.678;14.080;2024-02-16T03:34:27;10.90;99.90
6841;DHT22;3458;53.678;14.080;2024-02-16T03:36:52;10.90;99.90
6841;DHT22;3458;53.678;14.080;2024-02-16T03:39:18;10.90;99.90
6841;DHT22;3458;53.678;14.080;2024-02-16T03:41:45;10.80;99.90
6841;DHT22;3458;53.678;14.080;2024-02-16T03:44:14;10.80;99.90
6841;DHT22;3458;53.678;14.080;2024-02-16T03:46:39;10.80;99.90
6841;DHT22;3458;53.678;14.080;2024-02-16T03:49:05;10.80;99.90
6841;DHT22;3458;53.678;14.080;2024-02-16T03:51:30;10.80;99.90
6841;DHT22;3458;53.678;14.080;2024-02-16T03:53:56;10.80;99.90
6841;DHT22;3458;53.678;14.080;2024-02-16T03:56:21;10.80;99.90
6841;DHT22;3458;53.678;14.080;2024-02-16T03:58:47;10.80;99.90
6841;DHT22;3458;53.678;14.080;2024-02-16T04:01:13;10.80;99.90
6841;DHT22;3458;53.678;14.080;2024-02-16T04:03:38;10.80;99.90
6841;DHT22;3458;53.678;14.080;2024-02-16T04:06:04;10.70;99.90
6841;DHT22;3458;53.678;14.080;2024-02-16T04:08:30;10.80;99.90
6841;DHT22;3458;53.678;14.080;2024-02-16T04:10:55;10.80;99.90
6841;DHT22;3458;53.678;14.080;2024-02-16T04:13:21;10.70;99.90
6841;DHT22;3458;53.678;14.080;2024-02-16T04:15:46;10.70;99.90
6841;DHT22;3458;53.678;14.080;2024-02-16T04:18:12;10.70;99.90
6841;DHT22;3458;53.678;14.080;2024-02-16T04:20:37;10.70;99.90
6841;DHT22;3458;53.678;14.080;2024-02-16T04:23:03;10.70;99.90
6841;DHT22;3458;53.678;14.080;2024-02-16T04:25:28;10.70;99.90
6841;DHT22;3458;53.678;14.080;2024-02-16T04:27:54;10.70;99.90
6841;DHT22;3458;53.678;14.080;2024-02-16T04:30:19;10.70;99.90
6841;DHT22;3458;53.678;14.080;2024-02-16T04:32:45;10.60;99.90
6841;DHT22;3458;53.678;14.080;2024-02-16T04:35:10;10.60;99.90
6841;DHT22;3458;53.678;14.080;2024-02-16T04:37:40;10.60;99.90
6841;DHT22;3458;53.678;14.080;2024-02-16T04:40:06;10.60;99.90
6841;DHT22;3458;53.678;14.080;2024-02-16T04:42:33;10.60;99.90
6841;DHT22;3458;53.678;14.080;2024-02-16T04:44:58;10.60;99.90
6841;DHT22;3458;53.678;14.080;2024-02-16T04:47:25;10.50;99.90
6841;DHT22;3458;53.678;14.080;2024-02-16T04:49:51;10.50;99.90
6841;DHT22;3458;53.678;14.080;2024-02-16T04:52:16;10.50;99.90
6841;DHT22;3458;53.678;14.080;2024-02-16T04:54:42;10.50;99.90
6841;DHT22;3458;53.678;14.080;2024-02-16T04:57:07;10.40;99.90
6841;DHT22;3458;53.678;14.080;2024-02-16T04:59:33;10.50;99.90
6841;DHT22;3458;53.678;14.080;2024-02-16T05:01:58;10.40;99.90
6841;DHT22;3458;53.678;14.080;2024-02-16T05:04:24;10.40;99.90
6841;DHT22;3458;53.678;14.080;2024-02-16T05:06:49;10.40;99.90
6841;DHT22;3458;53.678;14.080;2024-02-16T05:09:17;10.40;99.90
6841;DHT22;3458;53.678;14.080;2024-02-16T05:11:43;10.40;99.90
6841;DHT22;3458;53.678;14.080;2024-02-16T05:14:10;10.40;99.90
6841;DHT22;3458;53.678;14.080;2024-02-16T05:16:37;10.40;99.90
6841;DHT22;3458;53.678;14.080;2024-02-16T05:19:02;10.40;99.90
6841;DHT22;3458;53.678;14.080;2024-02-16T05:21:28;10.40;99.90
6841;DHT22;3458;53.678;14.080;2024-02-16T05:23:54;10.30;99.90
6841;DHT22;3458;53.678;14.080;2024-02-16T05:26:20;10.30;99.90
6841;DHT22;3458;53.678;14.080;2024-02-16T05:28:46;10.30;99.90
6841;DHT22;3458;53.678;14.080;2024-02-16T05:31:18;10.30;99.90
6841;DHT22;3458;53.678;14.080;2024-02-16T05:33:46;10.30;99.90
6841;DHT22;3458;53.678;14.080;2024-02-16T05:36:11;10.30;99.90
6841;DHT22;3458;53.678;14.080;2024-02-16T05:38:37;10.30;99.90
6841;DHT22;3458;53.678;14.080;2024-02-16T05:41:09;10.30;99.90
6841;DHT22;3458;53.678;14.080;2024-02-16T05:43:36;10.30;99.90
6841;DHT22;3458;53.678;14.080;2024-02-16T05:46:03;10.30;99.90
6841;DHT22;3458;53.678;14.080;2024-02-16T05:48:35;10.20;99.90
6841;DHT22;3458;53.678;14.080;2024-02-16T05:51:04;10.20;99.90
6841;DHT22;3458;53.678;14.080;2024-02-16T05:53:34;10.20;99.90
6841;DHT22;3458;53.678;14.080;2024-02-16T05:56:00;10.20;99.90
6841;DHT22;3458;53.678;14.080;2024-02-16T05:58:26;10.20;99.90
6841;DHT22;3458;53.678;14.080;2024-02-16T06:00:53;10.20;99.90
6841;DHT22;3458;53.678;14.080;2024-02-16T06:03:19;10.30;99.90
6841;DHT22;3458;53.678;14.080;2024-02-16T06:05:45;10.30;99.90
6841;DHT22;3458;53.678;14.080;2024-02-16T06:08:11;10.30;99.90
6841;DHT22;3458;53.678;14.080;2024-02-16T06:10:36;10.30;99.90
6841;DHT22;3458;53.678;14.080;2024-02-16T06:13:02;10.30;99.90
6841;DHT22;3458;53.678;14.080;2024-02-16T06:15:28;10.30;99.90
6841;DHT22;3458;53.678;14.080;2024-02-16T06:17:53;10.30;99.90
6841;DHT22;3458;53.678;14.080;2024-02-16T06:20:19;10.40;99.90
6841;DHT22;3458;53.678;14.080;2024-02-16T06:22:44;10.40;99.90
6841;DHT22;3458;53.678;14.080;2024-02-16T06:25:10;10.40;99.90
6841;DHT22;3458;53.678;14.080;2024-02-16T06:27:36;10.40;99.90
6841;DHT22;3458;53.678;14.080;2024-02-16T06:30:03;10.40;99.90
6841;DHT22;3458;53.678;14.080;2024-02-16T06:32:29;10.40;99.90
6841;DHT22;3458;53.678;14.080;2024-02-16T06:34:56;10.40;99.90
6841;DHT22;3458;53.678;14.080;2024-02-16T06:37:22;10.40;99.90
6841;DHT22;3458;53.678;14.080;2024-02-16T06:39:47;10.30;99.90
6841;DHT22;3458;53.678;14.080;2024-02-16T06:42:13;10.30;99.90
6841;DHT22;3458;53.678;14.080;2024-02-16T06:44:39;10.30;99.90
6841;DHT22;3458;53.678;14.080;2024-02-16T06:47:05;10.30;99.90
6841;DHT22;3458;53.678;14.080;2024-02-16T06:49:31;10.30;99.90
6841;DHT22;3458;53.678;14.080;2024-02-16T06:51:56;10.30;99.90
6841;DHT22;3458;53.678;14.080;2024-02-16T06:54:22;10.20;99.90
6841;DHT22;3458;53.678;14.080;2024-02-16T06:56:47;10.30;99.90
6841;DHT22;3458;53.678;14.080;2024-02-16T06:59:13;10.20;99.90
6841;DHT22;3458;53.678;14.080;2024-02-16T07:01:39;10.30;99.90
6841;DHT22;3458;53.678;14.080;2024-02-16T07:04:04;10.20;99.90
6841;DHT22;3458;53.678;14.080;2024-02-16T07:06:31;10.20;99.90
6841;DHT22;3458;53.678;14.080;2024-02-16T07:08:56;10.30;99.90
6841;DHT22;3458;53.678;14.080;2024-02-16T07:11:22;10.30;99.90
6841;DHT22;3458;53.678;14.080;2024-02-16T07:13:47;10.40;99.90
6841;DHT22;3458;53.678;14.080;2024-02-16T07:16:13;10.40;99.90
6841;DHT22;3458;53.678;14.080;2024-02-16T07:18:38;10.50;99.90
6841;DHT22;3458;53.678;14.080;2024-02-16T07:21:04;10.50;99.90
6841;DHT22;3458;53.678;14.080;2024-02-16T07:23:29;10.60;99.90
6841;DHT22;3458;53.678;14.080;2024-02-16T07:25:55;10.60;99.90
6841;DHT22;3458;53.678;14.080;2024-02-16T07:28:25;10.60;99.90
6841;DHT22;3458;53.678;14.080;2024-02-16T07:30:54;10.60;99.90
6841;DHT22;3458;53.678;14.080;2024-02-16T07:33:19;10.60;99.90
6841;DHT22;3458;53.678;14.080;2024-02-16T07:35:45;10.70;99.90
6841;DHT22;3458;53.678;14.080;2024-02-16T07:38:11;10.70;99.90
6841;DHT22;3458;53.678;14.080;2024-02-16T07:40:36;10.60;99.90
6841;DHT22;3458;53.678;14.080;2024-02-16T07:43:02;10.70;99.90
6841;DHT22;3458;53.678;14.080;2024-02-16T07:45:29;10.70;99.90
6841;DHT22;3458;53.678;14.080;2024-02-16T07:47:56;10.70;99.90
6841;DHT22;3458;53.678;14.080;2024-02-16T07:50:22;10.70;99.90
6841;DHT22;3458;53.678;14.080;2024-02-16T07:52:49;10.60;99.90
6841;DHT22;3458;53.678;14.080;2024-02-16T07:55:14;10.60;99.90
6841;DHT22;3458;53.678;14.080;2024-02-16T07:57:42;10.60;99.90
6841;DHT22;3458;53.678;14.080;2024-02-16T08:00:08;10.70;99.90
6841;DHT22;3458;53.678;14.080;2024-02-16T08:02:36;10.70;99.90
6841;DHT22;3458;53.678;14.080;2024-02-16T08:05:02;10.70;99.90
6841;DHT22;3458;53.678;14.080;2024-02-16T08:07:27;10.70;99.90
6841;DHT22;3458;53.678;14.080;2024-02-16T08:09:53;10.80;99.90
6841;DHT22;3458;53.678;14.080;2024-02-16T08:12:18;10.80;99.90
6841;DHT22;3458;53.678;14.080;2024-02-16T08:14:44;10.80;99.90
6841;DHT22;3458;53.678;14.080;2024-02-16T08:17:11;10.80;99.90
6841;DHT22;3458;53.678;14.080;2024-02-16T08:19:38;10.90;99.90
6841;DHT22;3458;53.678;14.080;2024-02-16T08:22:05;10.90;99.90
6841;DHT22;3458;53.678;14.080;2024-02-16T08:24:37;10.90;99.90
6841;DHT22;3458;53.678;14.080;2024-02-16T08:27:03;10.90;99.90
6841;DHT22;3458;53.678;14.080;2024-02-16T08:29:32;10.90;99.90
6841;DHT22;3458;53.678;14.080;2024-02-16T08:31:57;10.90;99.90
6841;DHT22;3458;53.678;14.080;2024-02-16T08:34:23;11.00;99.90
6841;DHT22;3458;53.678;14.080;2024-02-16T08:36:52;11.00;99.90
6841;DHT22;3458;53.678;14.080;2024-02-16T08:39:18;11.00;99.90
6841;DHT22;3458;53.678;14.080;2024-02-16T08:41:47;11.00;99.90
6841;DHT22;3458;53.678;14.080;2024-02-16T08:44:13;11.10;99.90
6841;DHT22;3458;53.678;14.080;2024-02-16T08:46:39;11.10;99.90
6841;DHT22;3458;53.678;14.080;2024-02-16T08:49:05;11.20;99.90
6841;DHT22;3458;53.678;14.080;2024-02-16T08:51:34;11.30;99.90
6841;DHT22;3458;53.678;14.080;2024-02-16T08:54:00;11.30;99.90
6841;DHT22;3458;53.678;14.080;2024-02-16T08:56:26;11.40;99.90
6841;DHT22;3458;53.678;14.080;2024-02-16T08:58:52;11.40;99.90
6841;DHT22;3458;53.678;14.080;2024-02-16T09:01:17;11.40;99.90
6841;DHT22;3458;53.678;14.080;2024-02-16T09:03:43;11.40;99.90
6841;DHT22;3458;53.678;14.080;2024-02-16T09:06:09;11.40;99.90
6841;DHT22;3458;53.678;14.080;2024-02-16T09:08:34;11.50;99.90
6841;DHT22;3458;53.678;14.080;2024-02-16T09:11:03;11.50;99.90
6841;DHT22;3458;53.678;14.080;2024-02-16T09:13:32;11.60;99.90
6841;DHT22;3458;53.678;14.080;2024-02-16T09:15:58;11.60;99.90
6841;DHT22;3458;53.678;14.080;2024-02-16T09:18:23;11.60;99.90
6841;DHT22;3458;53.678;14.080;2024-02-16T09:20:49;11.60;99.90
6841;DHT22;3458;53.678;14.080;2024-02-16T09:23:14;11.60;99.90
6841;DHT22;3458;53.678;14.080;2024-02-16T09:25:40;11.60;99.90
6841;DHT22;3458;53.678;14.080;2024-02-16T09:28:06;11.60;99.90
6841;DHT22;3458;53.678;14.080;2024-02-16T09:30:32;11.60;99.90
6841;DHT22;3458;53.678;14.080;2024-02-16T09:32:58;11.60;99.90
6841;DHT22;3458;53.678;14.080;2024-02-16T09:35:23;11.60;99.90
6841;DHT22;3458;53.678;14.080;2024-02-16T09:37:49;11.60;99.90
6841;DHT22;3458;53.678;14.080;2024-02-16T09:40:14;11.60;99.90
6841;DHT22;3458;53.678;14.080;2024-02-16T09:42:40;11.60;99.90
6841;DHT22;3458;53.678;14.080;2024-02-16T09:45:07;11.60;99.90
6841;DHT22;3458;53.678;14.080;2024-02-16T09:47:33;11.60;99.90
6841;DHT22;3458;53.678;14.080;2024-02-16T09:50:00;11.60;99.90
6841;DHT22;3458;53.678;14.080;2024-02-16T09:52:26;11.60;99.90
6841;DHT22;3458;53.678;14.080;2024-02-16T09:54:51;11.60;99.90
6841;DHT22;3458;53.678;14.080;2024-02-16T09:57:18;11.60;99.90
6841;DHT22;3458;53.678;14.080;2024-02-16T09:59:43;11.70;99.90
6841;DHT22;3458;53.678;14.080;2024-02-16T10:02:09;11.70;99.90
6841;DHT22;3458;53.678;14.080;2024-02-16T10:04:35;11.70;99.90
6841;DHT22;3458;53.678;14.080;2024-02-16T10:07:00;11.60;99.90
6841;DHT22;3458;53.678;14.080;2024-02-16T10:09:27;11.60;99.90
6841;DHT22;3458;53.678;14.080;2024-02-16T10:11:54;11.60;99.90
6841;DHT22;3458;53.678;14.080;2024-02-16T10:14:20;11.60;99.90
6841;DHT22;3458;53.678;14.080;2024-02-16T10:16:47;11.70;99.90
6841;DHT22;3458;53.678;14.080;2024-02-16T10:19:13;11.70;99.90
6841;DHT22;3458;53.678;14.080;2024-02-16T10:21:39;11.80;99.90
6841;DHT22;3458;53.678;14.080;2024-02-16T10:24:10;11.90;99.90
6841;DHT22;3458;53.678;14.080;2024-02-16T10:26:37;11.90;99.90
6841;DHT22;3458;53.678;14.080;2024-02-16T10:29:04;12.00;99.90
6841;DHT22;3458;53.678;14.080;2024-02-16T10:31:31;12.10;99.90
6841;DHT22;3458;53.678;14.080;2024-02-16T10:34:08;12.10;99.90
6841;DHT22;3458;53.678;14.080;2024-02-16T10:36:38;12.10;99.90
6841;DHT22;3458;53.678;14.080;2024-02-16T10:39:05;12.20;99.90
6841;DHT22;3458;53.678;14.080;2024-02-16T10:41:36;12.30;99.90
6841;DHT22;3458;53.678;14.080;2024-02-16T10:44:03;12.30;99.90
6841;DHT22;3458;53.678;14.080;2024-02-16T10:46:29;12.40;99.90
6841;DHT22;3458;53.678;14.080;2024-02-16T10:48:55;12.40;99.90
6841;DHT22;3458;53.678;14.080;2024-02-16T10:51:28;12.40;99.90
6841;DHT22;3458;53.678;14.080;2024-02-16T10:53:56;12.50;99.90
6841;DHT22;3458;53.678;14.080;2024-02-16T10:56:36;12.60;99.90
6841;DHT22;3458;53.678;14.080;2024-02-16T10:59:07;12.70;99.90
6841;DHT22;3458;53.678;14.080;2024-02-16T11:01:40;12.90;99.90
6841;DHT22;3458;53.678;14.080;2024-02-16T11:04:08;13.00;99.90
6841;DHT22;3458;53.678;14.080;2024-02-16T11:06:53;13.30;99.90
6841;DHT22;3458;53.678;14.080;2024-02-16T11:09:34;13.50;99.90
6841;DHT22;3458;53.678;14.080;2024-02-16T11:12:02;13.70;99.90
6841;DHT22;3458;53.678;14.080;2024-02-16T11:14:41;13.80;99.90
6841;DHT22;3458;53.678;14.080;2024-02-16T11:17:14;13.90;99.90
6841;DHT22;3458;53.678;14.080;2024-02-16T11:19:44;14.00;99.90
6841;DHT22;3458;53.678;14.080;2024-02-16T11:22:10;14.10;99.90
6841;DHT22;3458;53.678;14.080;2024-02-16T11:24:38;14.20;99.90
6841;DHT22;3458;53.678;14.080;2024-02-16T11:27:08;14.30;99.90
6841;DHT22;3458;53.678;14.080;2024-02-16T11:29:37;14.30;99.90
6841;DHT22;3458;53.678;14.080;2024-02-16T11:32:05;14.30;99.90
6841;DHT22;3458;53.678;14.080;2024-02-16T11:34:32;14.40;99.90
6841;DHT22;3458;53.678;14.080;2024-02-16T11:37:00;14.50;99.90
6841;DHT22;3458;53.678;14.080;2024-02-16T11:39:27;14.70;99.90
6841;DHT22;3458;53.678;14.080;2024-02-16T11:42:19;14.70;99.90
6841;DHT22;3458;53.678;14.080;2024-02-16T11:44:55;14.70;99.90
6841;DHT22;3458;53.678;14.080;2024-02-16T11:47:24;14.50;99.90
6841;DHT22;3458;53.678;14.080;2024-02-16T11:50:06;14.30;99.90
6841;DHT22;3458;53.678;14.080;2024-02-16T11:52:37;14.20;99.90
6841;DHT22;3458;53.678;14.080;2024-02-16T11:55:04;14.10;99.90
6841;DHT22;3458;53.678;14.080;2024-02-16T11:57:30;14.00;99.90
6841;DHT22;3458;53.678;14.080;2024-02-16T11:59:56;14.00;99.90
6841;DHT22;3458;53.678;14.080;2024-02-16T12:02:24;14.00;99.90
6841;DHT22;3458;53.678;14.080;2024-02-16T12:05:00;13.90;99.90
6841;DHT22;3458;53.678;14.080;2024-02-16T12:07:26;13.90;99.90
6841;DHT22;3458;53.678;14.080;2024-02-16T12:09:58;14.00;99.90
6841;DHT22;3458;53.678;14.080;2024-02-16T12:12:25;14.00;99.90
6841;DHT22;3458;53.678;14.080;2024-02-16T12:14:50;14.00;99.90
6841;DHT22;3458;53.678;14.080;2024-02-16T12:17:16;14.00;99.90
6841;DHT22;3458;53.678;14.080;2024-02-16T12:19:45;14.00;99.90
6841;DHT22;3458;53.678;14.080;2024-02-16T12:22:16;14.00;99.90
6841;DHT22;3458;53.678;14.080;2024-02-16T12:24:43;14.00;99.90
6841;DHT22;3458;53.678;14.080;2024-02-16T12:27:09;14.00;99.90
6841;DHT22;3458;53.678;14.080;2024-02-16T12:29:34;14.00;99.90
6841;DHT22;3458;53.678;14.080;2024-02-16T12:32:00;14.00;99.90
6841;DHT22;3458;53.678;14.080;2024-02-16T12:34:25;14.10;99.90
6841;DHT22;3458;53.678;14.080;2024-02-16T12:36:51;14.10;99.90
6841;DHT22;3458;53.678;14.080;2024-02-16T12:39:19;14.10;99.90
6841;DHT22;3458;53.678;14.080;2024-02-16T12:41:52;14.10;99.90
6841;DHT22;3458;53.678;14.080;2024-02-16T12:44:18;14.20;99.90
6841;DHT22;3458;53.678;14.080;2024-02-16T12:46:44;14.20;99.90
6841;DHT22;3458;53.678;14.080;2024-02-16T12:49:09;14.30;99.90
6841;DHT22;3458;53.678;14.080;2024-02-16T12:51:35;14.30;99.90
6841;DHT22;3458;53.678;14.080;2024-02-16T12:54:01;14.30;99.90
6841;DHT22;3458;53.678;14.080;2024-02-16T12:56:29;14.30;99.90
6841;DHT22;3458;53.678;14.080;2024-02-16T12:58:55;14.30;99.90
6841;DHT22;3458;53.678;14.080;2024-02-16T13:01:20;14.30;99.90
6841;DHT22;3458;53.678;14.080;2024-02-16T13:03:46;14.30;99.90
6841;DHT22;3458;53.678;14.080;2024-02-16T13:06:12;14.40;99.90
6841;DHT22;3458;53.678;14.080;2024-02-16T13:08:38;14.40;99.90
6841;DHT22;3458;53.678;14.080;2024-02-16T13:11:04;14.50;99.90
6841;DHT22;3458;53.678;14.080;2024-02-16T13:13:30;14.70;99.90
6841;DHT22;3458;53.678;14.080;2024-02-16T13:15:57;15.00;99.90
6841;DHT22;3458;53.678;14.080;2024-02-16T13:18:24;15.10;99.90
6841;DHT22;3458;53.678;14.080;2024-02-16T13:20:50;15.30;99.90
6841;DHT22;3458;53.678;14.080;2024-02-16T13:23:15;15.70;99.90
6841;DHT22;3458;53.678;14.080;2024-02-16T13:25:41;15.80;99.90
6841;DHT22;3458;53.678;14.080;2024-02-16T13:28:06;15.90;99.90
6841;DHT22;3458;53.678;14.080;2024-02-16T13:30:32;16.20;99.90
6841;DHT22;3458;53.678;14.080;2024-02-16T13:32:57;16.60;99.90
6841;DHT22;3458;53.678;14.080;2024-02-16T13:35:23;16.70;99.90
6841;DHT22;3458;53.678;14.080;2024-02-16T13:37:50;16.60;99.90
6841;DHT22;3458;53.678;14.080;2024-02-16T13:40:15;16.60;99.90
6841;DHT22;3458;53.678;14.080;2024-02-16T13:42:42;16.40;99.90
6841;DHT22;3458;53.678;14.080;2024-02-16T13:45:08;16.40;99.90
6841;DHT22;3458;53.678;14.080;2024-02-16T13:47:35;16.60;99.90
6841;DHT22;3458;53.678;14.080;2024-02-16T13:50:00;16.80;99.90
6841;DHT22;3458;53.678;14.080;2024-02-16T13:52:26;16.90;99.90
6841;DHT22;3458;53.678;14.080;2024-02-16T13:54:52;16.90;99.90
6841;DHT22;3458;53.678;14.080;2024-02-16T13:57:17;17.10;99.90
6841;DHT22;3458;53.678;14.080;2024-02-16T13:59:43;17.10;99.90
6841;DHT22;3458;53.678;14.080;2024-02-16T14:02:09;17.00;99.90
6841;DHT22;3458;53.678;14.080;2024-02-16T14:04:35;16.70;99.90
6841;DHT22;3458;53.678;14.080;2024-02-16T14:07:01;16.50;99.90
6841;DHT22;3458;53.678;14.080;2024-02-16T14:09:26;16.30;99.90
6841;DHT22;3458;53.678;14.080;2024-02-16T14:11:52;16.20;99.90
6841;DHT22;3458;53.678;14.080;2024-02-16T14:14:20;16.30;99.90
6841;DHT22;3458;53.678;14.080;2024-02-16T14:16:47;16.70;99.90
6841;DHT22;3458;53.678;14.080;2024-02-16T14:19:13;16.80;99.90
6841;DHT22;3458;53.678;14.080;2024-02-16T14:21:38;16.80;99.90
6841;DHT22;3458;53.678;14.080;2024-02-16T14:24:04;17.10;99.90
6841;DHT22;3458;53.678;14.080;2024-02-16T14:26:30;17.50;99.90
6841;DHT22;3458;53.678;14.080;2024-02-16T14:28:56;17.80;99.90
6841;DHT22;3458;53.678;14.080;2024-02-16T14:31:22;18.00;99.90
6841;DHT22;3458;53.678;14.080;2024-02-16T14:33:48;17.90;99.90
6841;DHT22;3458;53.678;14.080;2024-02-16T14:36:14;17.80;99.90
6841;DHT22;3458;53.678;14.080;2024-02-16T14:38:39;17.60;99.90
6841;DHT22;3458;53.678;14.080;2024-02-16T14:41:05;17.50;99.90
6841;DHT22;3458;53.678;14.080;2024-02-16T14:43:32;17.40;99.90
6841;DHT22;3458;53.678;14.080;2024-02-16T14:46:00;17.20;99.90
6841;DHT22;3458;53.678;14.080;2024-02-16T14:48:26;17.20;99.90
6841;DHT22;3458;53.678;14.080;2024-02-16T14:50:52;17.10;99.90
6841;DHT22;3458;53.678;14.080;2024-02-16T14:53:22;16.90;99.90
6841;DHT22;3458;53.678;14.080;2024-02-16T14:55:48;16.60;99.90
6841;DHT22;3458;53.678;14.080;2024-02-16T14:58:15;16.40;99.90
6841;DHT22;3458;53.678;14.080;2024-02-16T15:00:41;16.20;99.90
6841;DHT22;3458;53.678;14.080;2024-02-16T15:03:11;16.00;99.90
6841;DHT22;3458;53.678;14.080;2024-02-16T15:05:37;15.80;99.90
6841;DHT22;3458;53.678;14.080;2024-02-16T15:08:03;15.60;99.90
6841;DHT22;3458;53.678;14.080;2024-02-16T15:10:29;15.40;99.90
6841;DHT22;3458;53.678;14.080;2024-02-16T15:12:54;15.30;99.90
6841;DHT22;3458;53.678;14.080;2024-02-16T15:15:20;15.20;99.90
6841;DHT22;3458;53.678;14.080;2024-02-16T15:17:46;15.10;99.90
6841;DHT22;3458;53.678;14.080;2024-02-16T15:20:13;14.90;99.90
6841;DHT22;3458;53.678;14.080;2024-02-16T15:22:39;14.80;99.90
6841;DHT22;3458;53.678;14.080;2024-02-16T15:25:06;14.70;99.90
6841;DHT22;3458;53.678;14.080;2024-02-16T15:27:32;14.70;99.90
6841;DHT22;3458;53.678;14.080;2024-02-16T15:29:57;14.60;99.90
6841;DHT22;3458;53.678;14.080;2024-02-16T15:32:23;14.50;99.90
6841;DHT22;3458;53.678;14.080;2024-02-16T15:34:49;14.50;99.90
6841;DHT22;3458;53.678;14.080;2024-02-16T15:37:21;14.40;99.90
6841;DHT22;3458;53.678;14.080;2024-02-16T15:39:47;14.30;99.90